sensor_id;sensor_type;location;lat;lon;timestamp;pressure;altitude;pressure_sealevel;temperature;humidity
63281;BME280;49406;51.044;3.766;2022-09-13T00:01:05;101109.82;;;17.99;92.48
63281;BME280;49406;51.044;3.766;2022-09-13T00:03:39;101110.02;;;17.98;92.96
63281;BME280;49406;51.044;3.766;2022-09-13T00:06:16;101112.66;;;17.99;93.54
63281;BME280;49406;51.044;3.766;2022-09-13T00:08:51;101107.54;;;17.98;93.73
63281;BME280;49406;51.044;3.766;2022-09-13T00:11:27;101108.42;;;17.97;94.11
63281;BME280;49406;51.044;3.766;2022-09-13T00:14:02;101099.08;;;17.95;94.30
63281;BME280;49406;51.044;3.766;2022-09-13T00:16:37;101086.00;;;17.95;95.18
63281;BME280;49406;51.044;3.766;2022-09-13T00:19:11;101073.65;;;17.93;95.76
63281;BME280;49406;51.044;3.766;2022-09-13T00:21:46;101064.67;;;17.91;95.78
63281;BME280;49406;51.044;3.766;2022-09-13T00:24:20;101060.30;;;17.89;95.48
63281;BME280;49406;51.044;3.766;2022-09-13T00:26:55;101068.85;;;17.85;94.75
63281;BME280;49406;51.044;3.766;2022-09-13T00:29:29;101071.59;;;17.81;94.67
63281;BME280;49406;51.044;3.766;2022-09-13T00:32:04;101071.46;;;17.77;95.47
63281;BME280;49406;51.044;3.766;2022-09-13T00:34:38;101073.84;;;17.73;96.03
63281;BME280;49406;51.044;3.766;2022-09-13T00:37:13;101068.26;;;17.68;96.09
63281;BME280;49406;51.044;3.766;2022-09-13T00:39:47;101056.80;;;17.65;96.32
63281;BME280;49406;51.044;3.766;2022-09-13T00:42:26;101058.42;;;17.62;97.40
63281;BME280;49406;51.044;3.766;2022-09-13T00:45:07;101056.17;;;17.60;98.11
63281;BME280;49406;51.044;3.766;2022-09-13T00:47:52;101057.63;;;17.58;98.18
63281;BME280;49406;51.044;3.766;2022-09-13T00:50:30;101053.79;;;17.55;98.21
63281;BME280;49406;51.044;3.766;2022-09-13T00:53:10;101050.30;;;17.53;98.50
63281;BME280;49406;51.044;3.766;2022-09-13T00:55:50;101045.58;;;17.51;98.20
63281;BME280;49406;51.044;3.766;2022-09-13T00:58:30;101046.16;;;17.47;98.53
63281;BME280;49406;51.044;3.766;2022-09-13T01:01:09;101045.30;;;17.44;98.62
63281;BME280;49406;51.044;3.766;2022-09-13T01:03:46;101046.57;;;17.43;98.53
63281;BME280;49406;51.044;3.766;2022-09-13T01:06:24;101042.20;;;17.40;98.23
63281;BME280;49406;51.044;3.766;2022-09-13T01:09:02;101039.45;;;17.36;98.40
63281;BME280;49406;51.044;3.766;2022-09-13T01:11:44;101041.81;;;17.33;98.79
63281;BME280;49406;51.044;3.766;2022-09-13T01:14:21;101042.36;;;17.30;98.80
63281;BME280;49406;51.044;3.766;2022-09-13T01:16:56;101042.63;;;17.25;99.07
63281;BME280;49406;51.044;3.766;2022-09-13T01:19:30;101039.87;;;17.21;99.21
63281;BME280;49406;51.044;3.766;2022-09-13T01:25:32;101042.48;;;17.13;100.00
63281;BME280;49406;51.044;3.766;2022-09-13T01:28:20;101044.80;;;17.10;100.00
63281;BME280;49406;51.044;3.766;2022-09-13T01:31:04;101048.15;;;17.10;100.00
63281;BME280;49406;51.044;3.766;2022-09-13T01:33:49;101052.42;;;17.09;100.00
63281;BME280;49406;51.044;3.766;2022-09-13T01:36:53;101053.50;;;17.07;100.00
63281;BME280;49406;51.044;3.766;2022-09-13T01:39:46;101060.41;;;17.06;100.00
63281;BME280;49406;51.044;3.766;2022-09-13T01:42:27;101060.29;;;17.03;100.00
63281;BME280;49406;51.044;3.766;2022-09-13T01:45:19;101067.58;;;17.01;100.00
63281;BME280;49406;51.044;3.766;2022-09-13T01:47:58;101069.70;;;17.00;100.00
63281;BME280;49406;51.044;3.766;2022-09-13T01:50:40;101075.48;;;17.03;100.00
63281;BME280;49406;51.044;3.766;2022-09-13T01:53:22;101077.40;;;17.04;100.00
63281;BME280;49406;51.044;3.766;2022-09-13T01:56:02;101074.41;;;17.03;100.00
63281;BME280;49406;51.044;3.766;2022-09-13T01:58:43;101074.80;;;17.01;100.00
63281;BME280;49406;51.044;3.766;2022-09-13T02:01:22;101069.72;;;16.99;100.00
63281;BME280;49406;51.044;3.766;2022-09-13T02:04:00;101071.67;;;16.96;100.00
63281;BME280;49406;51.044;3.766;2022-09-13T02:06:41;101068.18;;;16.94;100.00
63281;BME280;49406;51.044;3.766;2022-09-13T02:09:20;101071.02;;;16.93;100.00
63281;BME280;49406;51.044;3.766;2022-09-13T02:12:01;101074.38;;;16.93;100.00
63281;BME280;49406;51.044;3.766;2022-09-13T02:14:39;101078.81;;;16.92;100.00
63281;BME280;49406;51.044;3.766;2022-09-13T02:17:17;101087.11;;;16.91;100.00
63281;BME280;49406;51.044;3.766;2022-09-13T02:19:58;101092.41;;;16.92;100.00
63281;BME280;49406;51.044;3.766;2022-09-13T02:22:36;101098.79;;;16.90;100.00
63281;BME280;49406;51.044;3.766;2022-09-13T02:25:15;101100.77;;;16.88;100.00
63281;BME280;49406;51.044;3.766;2022-09-13T02:27:54;101111.58;;;16.86;100.00
63281;BME280;49406;51.044;3.766;2022-09-13T02:30:32;101115.16;;;16.82;100.00
63281;BME280;49406;51.044;3.766;2022-09-13T02:33:12;101112.73;;;16.77;100.00
63281;BME280;49406;51.044;3.766;2022-09-13T02:35:53;101113.34;;;16.72;100.00
63281;BME280;49406;51.044;3.766;2022-09-13T02:38:32;101109.67;;;16.69;100.00
63281;BME280;49406;51.044;3.766;2022-09-13T02:41:12;101108.11;;;16.68;100.00
63281;BME280;49406;51.044;3.766;2022-09-13T02:43:52;101107.75;;;16.66;100.00
63281;BME280;49406;51.044;3.766;2022-09-13T02:46:39;101107.94;;;16.67;100.00
63281;BME280;49406;51.044;3.766;2022-09-13T02:49:23;101104.75;;;16.68;100.00
63281;BME280;49406;51.044;3.766;2022-09-13T02:52:06;101103.86;;;16.68;100.00
63281;BME280;49406;51.044;3.766;2022-09-13T02:54:46;101103.51;;;16.68;100.00
63281;BME280;49406;51.044;3.766;2022-09-13T02:57:28;101099.25;;;16.70;100.00
63281;BME280;49406;51.044;3.766;2022-09-13T03:00:07;101091.45;;;16.72;100.00
63281;BME280;49406;51.044;3.766;2022-09-13T03:02:44;101086.48;;;16.74;100.00
63281;BME280;49406;51.044;3.766;2022-09-13T03:05:20;101085.77;;;16.74;100.00
63281;BME280;49406;51.044;3.766;2022-09-13T03:07:55;101087.70;;;16.75;100.00
63281;BME280;49406;51.044;3.766;2022-09-13T03:10:38;101083.83;;;16.74;100.00
63281;BME280;49406;51.044;3.766;2022-09-13T03:13:27;101079.45;;;16.72;100.00
63281;BME280;49406;51.044;3.766;2022-09-13T03:16:14;101078.73;;;16.72;100.00
63281;BME280;49406;51.044;3.766;2022-09-13T03:19:02;101076.41;;;16.74;100.00
63281;BME280;49406;51.044;3.766;2022-09-13T03:21:56;101071.11;;;16.74;100.00
63281;BME280;49406;51.044;3.766;2022-09-13T03:24:45;101069.33;;;16.75;100.00
63281;BME280;49406;51.044;3.766;2022-09-13T03:27:29;101067.55;;;16.76;100.00
63281;BME280;49406;51.044;3.766;2022-09-13T03:30:08;101059.58;;;16.77;100.00
63281;BME280;49406;51.044;3.766;2022-09-13T03:32:49;101057.98;;;16.79;100.00
63281;BME280;49406;51.044;3.766;2022-09-13T03:35:31;101054.59;;;16.82;100.00
63281;BME280;49406;51.044;3.766;2022-09-13T03:38:12;101058.61;;;16.85;100.00
63281;BME280;49406;51.044;3.766;2022-09-13T03:40:51;101064.79;;;16.85;100.00
63281;BME280;49406;51.044;3.766;2022-09-13T03:43:29;101063.92;;;16.84;100.00
63281;BME280;49406;51.044;3.766;2022-09-13T03:46:10;101061.09;;;16.85;100.00
63281;BME280;49406;51.044;3.766;2022-09-13T03:48:47;101061.45;;;16.84;100.00
63281;BME280;49406;51.044;3.766;2022-09-13T03:51:22;101058.64;;;16.83;100.00
63281;BME280;49406;51.044;3.766;2022-09-13T03:54:00;101058.48;;;16.82;100.00
63281;BME280;49406;51.044;3.766;2022-09-13T03:56:37;101053.02;;;16.81;100.00
63281;BME280;49406;51.044;3.766;2022-09-13T03:59:11;101047.92;;;16.80;100.00
63281;BME280;49406;51.044;3.766;2022-09-13T04:01:45;101046.14;;;16.79;100.00
63281;BME280;49406;51.044;3.766;2022-09-13T04:04:20;101048.10;;;16.77;100.00
63281;BME280;49406;51.044;3.766;2022-09-13T04:06:55;101042.48;;;16.76;100.00
63281;BME280;49406;51.044;3.766;2022-09-13T04:09:30;101043.21;;;16.74;100.00
63281;BME280;49406;51.044;3.766;2022-09-13T04:12:05;101050.48;;;16.72;100.00
63281;BME280;49406;51.044;3.766;2022-09-13T04:14:42;101052.43;;;16.71;100.00
63281;BME280;49406;51.044;3.766;2022-09-13T04:17:17;101057.22;;;16.70;100.00
63281;BME280;49406;51.044;3.766;2022-09-13T04:19:51;101059.20;;;16.67;100.00
63281;BME280;49406;51.044;3.766;2022-09-13T04:22:26;101058.70;;;16.63;100.00
63281;BME280;49406;51.044;3.766;2022-09-13T04:25:01;101061.71;;;16.61;100.00
63281;BME280;49406;51.044;3.766;2022-09-13T04:27:36;101064.40;;;16.58;100.00
63281;BME280;49406;51.044;3.766;2022-09-13T04:30:12;101066.70;;;16.58;100.00
63281;BME280;49406;51.044;3.766;2022-09-13T04:32:46;101074.13;;;16.57;100.00
63281;BME280;49406;51.044;3.766;2022-09-13T04:35:21;101071.32;;;16.55;100.00
63281;BME280;49406;51.044;3.766;2022-09-13T04:37:56;101075.76;;;16.54;100.00
63281;BME280;49406;51.044;3.766;2022-09-13T04:40:31;101074.89;;;16.53;100.00
63281;BME280;49406;51.044;3.766;2022-09-13T04:43:06;101077.54;;;16.53;100.00
63281;BME280;49406;51.044;3.766;2022-09-13T04:45:41;101077.38;;;16.51;100.00
63281;BME280;49406;51.044;3.766;2022-09-13T04:48:15;101080.01;;;16.53;100.00
63281;BME280;49406;51.044;3.766;2022-09-13T04:50:49;101081.20;;;16.55;100.00
63281;BME280;49406;51.044;3.766;2022-09-13T04:53:24;101088.63;;;16.55;100.00
63281;BME280;49406;51.044;3.766;2022-09-13T04:56:02;101087.20;;;16.55;100.00
63281;BME280;49406;51.044;3.766;2022-09-13T04:58:37;101083.14;;;16.56;100.00
63281;BME280;49406;51.044;3.766;2022-09-13T05:01:11;101077.31;;;16.57;100.00
63281;BME280;49406;51.044;3.766;2022-09-13T05:03:46;101078.85;;;16.60;100.00
63281;BME280;49406;51.044;3.766;2022-09-13T05:06:21;101083.07;;;16.61;100.00
63281;BME280;49406;51.044;3.766;2022-09-13T05:08:56;101083.59;;;16.62;100.00
63281;BME280;49406;51.044;3.766;2022-09-13T05:11:31;101083.76;;;16.63;100.00
63281;BME280;49406;51.044;3.766;2022-09-13T05:14:05;101084.81;;;16.63;100.00
63281;BME280;49406;51.044;3.766;2022-09-13T05:16:40;101081.30;;;16.61;100.00
63281;BME280;49406;51.044;3.766;2022-09-13T05:19:15;101081.28;;;16.63;100.00
63281;BME280;49406;51.044;3.766;2022-09-13T05:21:49;101091.34;;;16.65;100.00
63281;BME280;49406;51.044;3.766;2022-09-13T05:24:24;101097.52;;;16.66;100.00
63281;BME280;49406;51.044;3.766;2022-09-13T05:26:58;101106.52;;;16.67;100.00
63281;BME280;49406;51.044;3.766;2022-09-13T05:29:33;101106.13;;;16.70;100.00
63281;BME280;49406;51.044;3.766;2022-09-13T05:32:07;101099.57;;;16.72;100.00
63281;BME280;49406;51.044;3.766;2022-09-13T05:34:42;101093.89;;;16.74;100.00
63281;BME280;49406;51.044;3.766;2022-09-13T05:37:16;101097.22;;;16.75;100.00
63281;BME280;49406;51.044;3.766;2022-09-13T05:39:51;101097.56;;;16.76;100.00
63281;BME280;49406;51.044;3.766;2022-09-13T05:42:25;101101.42;;;16.77;100.00
63281;BME280;49406;51.044;3.766;2022-09-13T05:45:00;101100.17;;;16.78;100.00
63281;BME280;49406;51.044;3.766;2022-09-13T05:47:34;101107.92;;;16.81;100.00
63281;BME280;49406;51.044;3.766;2022-09-13T05:50:10;101110.17;;;16.85;100.00
63281;BME280;49406;51.044;3.766;2022-09-13T05:52:44;101109.77;;;16.88;100.00
63281;BME280;49406;51.044;3.766;2022-09-13T05:55:24;101113.98;;;16.90;100.00
63281;BME280;49406;51.044;3.766;2022-09-13T05:57:59;101121.72;;;16.92;100.00
63281;BME280;49406;51.044;3.766;2022-09-13T06:00:34;101123.98;;;16.94;100.00
63281;BME280;49406;51.044;3.766;2022-09-13T06:03:09;101120.95;;;16.96;100.00
63281;BME280;49406;51.044;3.766;2022-09-13T06:05:43;101123.92;;;17.00;100.00
63281;BME280;49406;51.044;3.766;2022-09-13T06:08:18;101123.33;;;17.04;100.00
63281;BME280;49406;51.044;3.766;2022-09-13T06:10:57;101120.62;;;17.08;100.00
63281;BME280;49406;51.044;3.766;2022-09-13T06:13:33;101120.73;;;17.13;100.00
63281;BME280;49406;51.044;3.766;2022-09-13T06:16:10;101122.05;;;17.20;100.00
63281;BME280;49406;51.044;3.766;2022-09-13T06:18:44;101126.20;;;17.25;100.00
63281;BME280;49406;51.044;3.766;2022-09-13T06:21:20;101130.20;;;17.30;100.00
63281;BME280;49406;51.044;3.766;2022-09-13T06:23:55;101132.59;;;17.35;100.00
63281;BME280;49406;51.044;3.766;2022-09-13T06:26:28;101127.35;;;17.42;100.00
63281;BME280;49406;51.044;3.766;2022-09-13T06:29:03;101123.71;;;17.50;100.00
63281;BME280;49406;51.044;3.766;2022-09-13T06:31:38;101120.76;;;17.57;100.00
63281;BME280;49406;51.044;3.766;2022-09-13T06:34:16;101119.92;;;17.65;100.00
63281;BME280;49406;51.044;3.766;2022-09-13T06:36:51;101118.59;;;17.72;100.00
63281;BME280;49406;51.044;3.766;2022-09-13T06:39:25;101120.21;;;17.81;100.00
63281;BME280;49406;51.044;3.766;2022-09-13T06:42:00;101118.27;;;17.91;100.00
63281;BME280;49406;51.044;3.766;2022-09-13T06:44:34;101109.61;;;18.00;100.00
63281;BME280;49406;51.044;3.766;2022-09-13T06:47:08;101106.58;;;18.12;100.00
63281;BME280;49406;51.044;3.766;2022-09-13T06:49:43;101102.12;;;18.22;100.00
63281;BME280;49406;51.044;3.766;2022-09-13T06:52:16;101102.98;;;18.33;100.00
63281;BME280;49406;51.044;3.766;2022-09-13T06:54:50;101101.33;;;18.44;100.00
63281;BME280;49406;51.044;3.766;2022-09-13T06:57:25;101099.67;;;18.56;100.00
63281;BME280;49406;51.044;3.766;2022-09-13T07:00:00;101101.27;;;18.67;100.00
63281;BME280;49406;51.044;3.766;2022-09-13T07:02:34;101101.48;;;18.81;100.00
63281;BME280;49406;51.044;3.766;2022-09-13T07:05:09;101099.04;;;18.95;99.85
63281;BME280;49406;51.044;3.766;2022-09-13T07:07:44;101099.61;;;19.09;98.97
63281;BME280;49406;51.044;3.766;2022-09-13T07:10:18;101100.16;;;19.24;98.48
63281;BME280;49406;51.044;3.766;2022-09-13T07:12:53;101101.71;;;19.40;98.11
63281;BME280;49406;51.044;3.766;2022-09-13T07:15:27;101108.20;;;19.59;97.33
63281;BME280;49406;51.044;3.766;2022-09-13T07:18:01;101109.71;;;19.77;96.22
63281;BME280;49406;51.044;3.766;2022-09-13T07:20:36;101110.52;;;19.93;95.70
63281;BME280;49406;51.044;3.766;2022-09-13T07:23:11;101116.54;;;20.07;95.24
63281;BME280;49406;51.044;3.766;2022-09-13T07:25:54;101116.52;;;20.21;93.86
63281;BME280;49406;51.044;3.766;2022-09-13T07:28:35;101119.98;;;20.51;92.76
63281;BME280;49406;51.044;3.766;2022-09-13T07:31:12;101113.48;;;20.79;91.43
63281;BME280;49406;51.044;3.766;2022-09-13T07:33:49;101115.57;;;21.04;89.85
63281;BME280;49406;51.044;3.766;2022-09-13T07:36:29;101113.00;;;21.24;87.87
63281;BME280;49406;51.044;3.766;2022-09-13T07:39:04;101112.86;;;21.40;86.94
63281;BME280;49406;51.044;3.766;2022-09-13T07:41:38;101114.13;;;21.61;85.95
63281;BME280;49406;51.044;3.766;2022-09-13T07:44:13;101116.34;;;21.90;84.45
63281;BME280;49406;51.044;3.766;2022-09-13T07:46:48;101122.63;;;22.25;82.47
63281;BME280;49406;51.044;3.766;2022-09-13T07:49:22;101123.09;;;22.61;81.50
63281;BME280;49406;51.044;3.766;2022-09-13T07:51:57;101119.67;;;22.90;78.91
63281;BME280;49406;51.044;3.766;2022-09-13T07:54:31;101120.54;;;23.27;77.86
63281;BME280;49406;51.044;3.766;2022-09-13T07:57:08;101120.52;;;23.54;75.23
63281;BME280;49406;51.044;3.766;2022-09-13T07:59:43;101119.99;;;23.76;74.86
63281;BME280;49406;51.044;3.766;2022-09-13T08:02:18;101120.95;;;24.20;72.71
63281;BME280;49406;51.044;3.766;2022-09-13T08:04:52;101121.48;;;24.41;70.08
63281;BME280;49406;51.044;3.766;2022-09-13T08:07:27;101120.08;;;24.60;69.21
63281;BME280;49406;51.044;3.766;2022-09-13T08:10:01;101117.33;;;24.77;68.50
63281;BME280;49406;51.044;3.766;2022-09-13T08:12:35;101116.55;;;24.89;67.53
63281;BME280;49406;51.044;3.766;2022-09-13T08:15:11;101115.91;;;25.18;66.73
63281;BME280;49406;51.044;3.766;2022-09-13T08:17:45;101113.85;;;25.53;66.81
63281;BME280;49406;51.044;3.766;2022-09-13T08:20:19;101113.50;;;25.72;65.33
63281;BME280;49406;51.044;3.766;2022-09-13T08:22:55;101118.36;;;25.74;65.14
63281;BME280;49406;51.044;3.766;2022-09-13T08:25:30;101118.70;;;25.75;65.62
63281;BME280;49406;51.044;3.766;2022-09-13T08:28:07;101118.14;;;25.72;65.21
63281;BME280;49406;51.044;3.766;2022-09-13T08:30:43;101118.05;;;25.70;65.18
63281;BME280;49406;51.044;3.766;2022-09-13T08:43:24;101124.47;;;25.63;62.63
63281;BME280;49406;51.044;3.766;2022-09-13T08:46:05;101120.50;;;25.31;63.57
63281;BME280;49406;51.044;3.766;2022-09-13T08:48:44;101113.91;;;25.08;63.99
63281;BME280;49406;51.044;3.766;2022-09-13T08:51:24;101109.75;;;24.90;65.31
63281;BME280;49406;51.044;3.766;2022-09-13T08:54:01;101112.52;;;24.92;66.39
63281;BME280;49406;51.044;3.766;2022-09-13T08:56:43;101117.38;;;24.99;66.57
63281;BME280;49406;51.044;3.766;2022-09-13T08:59:44;101120.27;;;25.02;66.42
63281;BME280;49406;51.044;3.766;2022-09-13T09:02:33;101116.23;;;25.05;66.72
63281;BME280;49406;51.044;3.766;2022-09-13T09:05:17;101116.09;;;25.04;66.14
63281;BME280;49406;51.044;3.766;2022-09-13T09:07:56;101116.34;;;25.13;65.62
63281;BME280;49406;51.044;3.766;2022-09-13T09:10:34;101118.51;;;25.16;65.07
63281;BME280;49406;51.044;3.766;2022-09-13T09:13:15;101116.73;;;25.09;64.11
63281;BME280;49406;51.044;3.766;2022-09-13T09:15:54;101109.22;;;25.06;65.48
63281;BME280;49406;51.044;3.766;2022-09-13T09:18:32;101100.34;;;25.18;64.65
63281;BME280;49406;51.044;3.766;2022-09-13T09:21:19;101101.40;;;25.37;64.04
63281;BME280;49406;51.044;3.766;2022-09-13T09:23:55;101095.97;;;25.56;62.73
63281;BME280;49406;51.044;3.766;2022-09-13T09:26:31;101093.72;;;25.73;62.31
63281;BME280;49406;51.044;3.766;2022-09-13T09:29:19;101093.19;;;25.80;61.69
63281;BME280;49406;51.044;3.766;2022-09-13T09:32:06;101094.83;;;25.76;61.06
63281;BME280;49406;51.044;3.766;2022-09-13T09:34:56;101093.33;;;25.59;61.39
63281;BME280;49406;51.044;3.766;2022-09-13T09:37:35;101090.13;;;25.55;61.08
63281;BME280;49406;51.044;3.766;2022-09-13T09:40:13;101081.93;;;25.47;61.23
63281;BME280;49406;51.044;3.766;2022-09-13T09:42:49;101082.43;;;25.59;61.76
63281;BME280;49406;51.044;3.766;2022-09-13T09:45:27;101084.14;;;25.75;61.47
63281;BME280;49406;51.044;3.766;2022-09-13T09:48:05;101080.89;;;25.86;60.82
63281;BME280;49406;51.044;3.766;2022-09-13T09:50:46;101071.75;;;25.96;60.23
63281;BME280;49406;51.044;3.766;2022-09-13T09:53:26;101067.52;;;25.98;60.06
63281;BME280;49406;51.044;3.766;2022-09-13T09:56:05;101065.36;;;25.88;60.17
63281;BME280;49406;51.044;3.766;2022-09-13T09:58:45;101062.73;;;25.66;60.50
63281;BME280;49406;51.044;3.766;2022-09-13T10:01:25;101050.77;;;25.58;61.76
63281;BME280;49406;51.044;3.766;2022-09-13T10:04:14;101049.10;;;25.59;61.59
63281;BME280;49406;51.044;3.766;2022-09-13T10:07:09;101056.29;;;25.62;61.51
63281;BME280;49406;51.044;3.766;2022-09-13T10:09:57;101060.21;;;25.90;61.37
63281;BME280;49406;51.044;3.766;2022-09-13T10:12:38;101059.69;;;26.14;59.51
63281;BME280;49406;51.044;3.766;2022-09-13T10:15:18;101063.82;;;26.07;59.11
63281;BME280;49406;51.044;3.766;2022-09-13T10:18:14;101062.06;;;26.06;60.04
63281;BME280;49406;51.044;3.766;2022-09-13T10:21:03;101064.35;;;26.31;60.42
63281;BME280;49406;51.044;3.766;2022-09-13T10:23:38;101065.65;;;26.53;59.26
63281;BME280;49406;51.044;3.766;2022-09-13T10:26:14;101070.77;;;26.68;58.56
63281;BME280;49406;51.044;3.766;2022-09-13T10:28:55;101072.23;;;26.90;57.92
63281;BME280;49406;51.044;3.766;2022-09-13T10:31:32;101073.63;;;27.01;57.32
63281;BME280;49406;51.044;3.766;2022-09-13T10:34:15;101065.72;;;26.97;56.32
63281;BME280;49406;51.044;3.766;2022-09-13T10:36:55;101064.25;;;26.88;55.83
63281;BME280;49406;51.044;3.766;2022-09-13T10:39:32;101065.08;;;26.80;56.58
63281;BME280;49406;51.044;3.766;2022-09-13T10:42:10;101062.31;;;26.81;57.14
63281;BME280;49406;51.044;3.766;2022-09-13T10:44:50;101057.81;;;26.85;56.85
63281;BME280;49406;51.044;3.766;2022-09-13T10:47:30;101062.74;;;26.90;56.92
63281;BME280;49406;51.044;3.766;2022-09-13T10:50:21;101063.20;;;27.08;57.70
63281;BME280;49406;51.044;3.766;2022-09-13T10:52:57;101066.52;;;27.27;57.17
63281;BME280;49406;51.044;3.766;2022-09-13T10:55:34;101069.15;;;27.44;56.11
63281;BME280;49406;51.044;3.766;2022-09-13T10:58:17;101071.65;;;27.50;56.14
63281;BME280;49406;51.044;3.766;2022-09-13T11:01:30;101072.45;;;27.64;55.20
63281;BME280;49406;51.044;3.766;2022-09-13T11:07:49;101061.10;;;28.01;53.45
63281;BME280;49406;51.044;3.766;2022-09-13T11:10:30;101065.04;;;28.18;53.37
63281;BME280;49406;51.044;3.766;2022-09-13T11:13:13;101064.50;;;28.30;51.26
63281;BME280;49406;51.044;3.766;2022-09-13T11:15:56;101063.54;;;28.17;51.08
63281;BME280;49406;51.044;3.766;2022-09-13T11:18:51;101064.91;;;27.97;51.97
63281;BME280;49406;51.044;3.766;2022-09-13T11:21:40;101067.41;;;27.82;52.96
63281;BME280;49406;51.044;3.766;2022-09-13T11:27:47;101075.95;;;27.72;53.68
63281;BME280;49406;51.044;3.766;2022-09-13T11:30:24;101079.55;;;27.75;53.52
63281;BME280;49406;51.044;3.766;2022-09-13T11:33:14;101078.65;;;27.72;53.76
63281;BME280;49406;51.044;3.766;2022-09-13T11:36:13;101079.61;;;27.80;54.37
63281;BME280;49406;51.044;3.766;2022-09-13T11:39:02;101083.89;;;27.98;54.04
63281;BME280;49406;51.044;3.766;2022-09-13T11:41:45;101083.71;;;27.98;54.11
63281;BME280;49406;51.044;3.766;2022-09-13T11:44:34;101084.31;;;27.95;54.40
63281;BME280;49406;51.044;3.766;2022-09-13T11:47:24;101082.28;;;27.93;54.41
63281;BME280;49406;51.044;3.766;2022-09-13T11:50:14;101072.59;;;27.89;54.52
63281;BME280;49406;51.044;3.766;2022-09-13T11:53:07;101066.02;;;27.81;55.01
63281;BME280;49406;51.044;3.766;2022-09-13T11:55:47;101071.27;;;27.84;55.97
63281;BME280;49406;51.044;3.766;2022-09-13T11:58:25;101068.79;;;27.62;56.27
63281;BME280;49406;51.044;3.766;2022-09-13T12:01:07;101065.00;;;27.38;57.27
63281;BME280;49406;51.044;3.766;2022-09-13T12:03:48;101056.98;;;27.18;57.89
63281;BME280;49406;51.044;3.766;2022-09-13T12:06:29;101059.95;;;27.10;58.27
63281;BME280;49406;51.044;3.766;2022-09-13T12:09:10;101051.82;;;26.83;58.71
63281;BME280;49406;51.044;3.766;2022-09-13T12:11:49;101050.58;;;26.57;60.21
63281;BME280;49406;51.044;3.766;2022-09-13T12:14:31;101058.23;;;26.31;61.31
63281;BME280;49406;51.044;3.766;2022-09-13T12:17:20;101063.89;;;26.09;62.02
63281;BME280;49406;51.044;3.766;2022-09-13T12:19:59;101064.38;;;25.72;63.91
63281;BME280;49406;51.044;3.766;2022-09-13T12:22:36;101060.56;;;25.45;65.86
63281;BME280;49406;51.044;3.766;2022-09-13T12:25:20;101060.50;;;25.18;68.03
63281;BME280;49406;51.044;3.766;2022-09-13T12:28:02;101061.58;;;24.87;70.05
63281;BME280;49406;51.044;3.766;2022-09-13T12:30:43;101063.67;;;24.58;71.98
63281;BME280;49406;51.044;3.766;2022-09-13T12:33:20;101071.04;;;24.30;73.34
63281;BME280;49406;51.044;3.766;2022-09-13T12:36:08;101069.48;;;24.08;75.37
63281;BME280;49406;51.044;3.766;2022-09-13T12:39:20;101069.75;;;23.74;76.63
63281;BME280;49406;51.044;3.766;2022-09-13T12:42:31;101070.13;;;23.43;79.82
63281;BME280;49406;51.044;3.766;2022-09-13T12:45:23;101060.93;;;23.15;80.53
63281;BME280;49406;51.044;3.766;2022-09-13T12:48:23;101057.21;;;23.01;81.70
63281;BME280;49406;51.044;3.766;2022-09-13T12:51:10;101059.69;;;22.88;83.78
63281;BME280;49406;51.044;3.766;2022-09-13T12:57:02;101062.95;;;22.77;84.30
63281;BME280;49406;51.044;3.766;2022-09-13T13:00:07;101061.54;;;22.68;85.47
63281;BME280;49406;51.044;3.766;2022-09-13T13:02:49;101057.20;;;22.60;86.08
63281;BME280;49406;51.044;3.766;2022-09-13T13:05:28;101056.58;;;22.53;87.15
63281;BME280;49406;51.044;3.766;2022-09-13T13:08:07;101062.58;;;22.49;87.62
63281;BME280;49406;51.044;3.766;2022-09-13T13:11:03;101060.52;;;22.43;87.90
63281;BME280;49406;51.044;3.766;2022-09-13T13:13:41;101058.19;;;22.39;88.74
63281;BME280;49406;51.044;3.766;2022-09-13T13:16:25;101053.08;;;22.37;88.71
63281;BME280;49406;51.044;3.766;2022-09-13T13:19:02;101057.02;;;22.36;89.35
63281;BME280;49406;51.044;3.766;2022-09-13T13:21:39;101059.34;;;22.37;88.97
63281;BME280;49406;51.044;3.766;2022-09-13T13:24:41;101065.60;;;22.35;89.32
63281;BME280;49406;51.044;3.766;2022-09-13T13:27:38;101066.31;;;22.30;89.22
63281;BME280;49406;51.044;3.766;2022-09-13T13:30:48;101069.41;;;22.29;89.58
63281;BME280;49406;51.044;3.766;2022-09-13T13:33:27;101067.29;;;22.24;90.07
63281;BME280;49406;51.044;3.766;2022-09-13T13:36:24;101065.30;;;22.20;89.86
63281;BME280;49406;51.044;3.766;2022-09-13T13:39:01;101067.17;;;22.17;89.65
63281;BME280;49406;51.044;3.766;2022-09-13T13:41:44;101067.98;;;22.14;90.71
63281;BME280;49406;51.044;3.766;2022-09-13T13:48:08;101072.19;;;22.11;91.36
63281;BME280;49406;51.044;3.766;2022-09-13T13:51:18;101069.52;;;22.07;92.18
63281;BME280;49406;51.044;3.766;2022-09-13T13:53:59;101072.04;;;22.00;93.23
63281;BME280;49406;51.044;3.766;2022-09-13T13:56:45;101070.95;;;21.95;94.08
63281;BME280;49406;51.044;3.766;2022-09-13T13:59:26;101075.83;;;21.88;94.95
63281;BME280;49406;51.044;3.766;2022-09-13T14:02:10;101081.86;;;21.84;95.08
63281;BME280;49406;51.044;3.766;2022-09-13T14:05:08;101086.30;;;21.83;96.29
63281;BME280;49406;51.044;3.766;2022-09-13T14:08:00;101087.23;;;21.88;97.11
63281;BME280;49406;51.044;3.766;2022-09-13T14:10:46;101088.91;;;21.90;98.29
63281;BME280;49406;51.044;3.766;2022-09-13T14:13:47;101086.94;;;21.91;99.08
63281;BME280;49406;51.044;3.766;2022-09-13T14:24:48;101076.48;;;22.00;100.00
63281;BME280;49406;51.044;3.766;2022-09-13T14:27:24;101075.56;;;22.01;100.00